sensor_id;sensor_type;location;lat;lon;timestamp;P1;durP1;ratioP1;P2;durP2;ratioP2
13605;SDS011;6874;52.084;5.090;2023-07-13T00:00:40;175.33;;;169.33;;
13605;SDS011;6874;52.084;5.090;2023-07-13T00:03:06;196.60;;;190.00;;
13605;SDS011;6874;52.084;5.090;2023-07-13T00:05:32;201.93;;;195.07;;
13605;SDS011;6874;52.084;5.090;2023-07-13T00:07:58;210.47;;;203.33;;
13605;SDS011;6874;52.084;5.090;2023-07-13T00:10:24;217.30;;;209.97;;
13605;SDS011;6874;52.084;5.090;2023-07-13T00:12:49;233.20;;;225.33;;
13605;SDS011;6874;52.084;5.090;2023-07-13T00:15:21;244.30;;;236.00;;
13605;SDS011;6874;52.084;5.090;2023-07-13T00:17:54;248.03;;;239.57;;
13605;SDS011;6874;52.084;5.090;2023-07-13T00:20:20;258.53;;;249.63;;
13605;SDS011;6874;52.084;5.090;2023-07-13T00:22:51;268.73;;;259.53;;
13605;SDS011;6874;52.084;5.090;2023-07-13T00:25:19;272.43;;;263.03;;
13605;SDS011;6874;52.084;5.090;2023-07-13T00:27:46;266.10;;;257.00;;
13605;SDS011;6874;52.084;5.090;2023-07-13T00:30:16;267.90;;;258.77;;
13605;SDS011;6874;52.084;5.090;2023-07-13T00:32:42;265.70;;;256.67;;
13605;SDS011;6874;52.084;5.090;2023-07-13T00:35:08;272.77;;;263.53;;
13605;SDS011;6874;52.084;5.090;2023-07-13T00:37:34;259.90;;;251.20;;
13605;SDS011;6874;52.084;5.090;2023-07-13T00:40:01;264.67;;;255.77;;
13605;SDS011;6874;52.084;5.090;2023-07-13T00:42:28;259.70;;;251.03;;
13605;SDS011;6874;52.084;5.090;2023-07-13T00:45:01;259.70;;;251.03;;
13605;SDS011;6874;52.084;5.090;2023-07-13T00:47:32;256.43;;;247.93;;
13605;SDS011;6874;52.084;5.090;2023-07-13T00:49:58;255.53;;;247.07;;
13605;SDS011;6874;52.084;5.090;2023-07-13T00:52:24;253.43;;;244.93;;
13605;SDS011;6874;52.084;5.090;2023-07-13T00:54:49;255.80;;;247.30;;
13605;SDS011;6874;52.084;5.090;2023-07-13T00:57:16;263.63;;;254.83;;
13605;SDS011;6874;52.084;5.090;2023-07-13T00:59:45;256.67;;;248.07;;
13605;SDS011;6874;52.084;5.090;2023-07-13T01:02:14;252.07;;;243.67;;
13605;SDS011;6874;52.084;5.090;2023-07-13T01:04:41;254.00;;;245.43;;
13605;SDS011;6874;52.084;5.090;2023-07-13T01:07:09;255.27;;;246.67;;
13605;SDS011;6874;52.084;5.090;2023-07-13T01:09:36;250.60;;;242.20;;
13605;SDS011;6874;52.084;5.090;2023-07-13T01:12:02;249.77;;;241.37;;
13605;SDS011;6874;52.084;5.090;2023-07-13T01:14:28;245.53;;;237.30;;
13605;SDS011;6874;52.084;5.090;2023-07-13T01:16:54;241.93;;;233.83;;
13605;SDS011;6874;52.084;5.090;2023-07-13T01:19:37;230.40;;;222.77;;
13605;SDS011;6874;52.084;5.090;2023-07-13T01:22:08;210.97;;;203.97;;
13605;SDS011;6874;52.084;5.090;2023-07-13T01:24:46;201.17;;;194.50;;
13605;SDS011;6874;52.084;5.090;2023-07-13T01:27:14;206.17;;;199.43;;
13605;SDS011;6874;52.084;5.090;2023-07-13T01:29:42;190.50;;;184.20;;
13605;SDS011;6874;52.084;5.090;2023-07-13T01:32:21;188.27;;;182.07;;
13605;SDS011;6874;52.084;5.090;2023-07-13T01:34:49;178.90;;;172.97;;
13605;SDS011;6874;52.084;5.090;2023-07-13T01:37:19;178.30;;;172.30;;
13605;SDS011;6874;52.084;5.090;2023-07-13T01:39:45;194.27;;;187.67;;
13605;SDS011;6874;52.084;5.090;2023-07-13T01:42:11;194.87;;;188.33;;
13605;SDS011;6874;52.084;5.090;2023-07-13T01:44:38;194.73;;;188.23;;
13605;SDS011;6874;52.084;5.090;2023-07-13T01:47:03;193.07;;;186.57;;
13605;SDS011;6874;52.084;5.090;2023-07-13T01:49:29;186.10;;;179.80;;
13605;SDS011;6874;52.084;5.090;2023-07-13T01:51:55;186.83;;;180.53;;
13605;SDS011;6874;52.084;5.090;2023-07-13T01:54:21;183.90;;;177.70;;
13605;SDS011;6874;52.084;5.090;2023-07-13T01:56:47;180.63;;;174.53;;
13605;SDS011;6874;52.084;5.090;2023-07-13T01:59:12;175.77;;;169.80;;
13605;SDS011;6874;52.084;5.090;2023-07-13T02:01:38;170.27;;;164.47;;
13605;SDS011;6874;52.084;5.090;2023-07-13T02:04:04;170.00;;;164.33;;
13605;SDS011;6874;52.084;5.090;2023-07-13T02:06:30;157.90;;;152.60;;
13605;SDS011;6874;52.084;5.090;2023-07-13T02:08:56;147.90;;;142.90;;
13605;SDS011;6874;52.084;5.090;2023-07-13T02:11:22;143.30;;;138.50;;
13605;SDS011;6874;52.084;5.090;2023-07-13T02:13:48;132.43;;;128.00;;
13605;SDS011;6874;52.084;5.090;2023-07-13T02:16:13;126.33;;;122.13;;
13605;SDS011;6874;52.084;5.090;2023-07-13T02:18:39;117.53;;;113.60;;
13605;SDS011;6874;52.084;5.090;2023-07-13T02:21:05;113.47;;;109.67;;
13605;SDS011;6874;52.084;5.090;2023-07-13T02:23:31;103.87;;;100.40;;
13605;SDS011;6874;52.084;5.090;2023-07-13T02:25:57;98.90;;;95.60;;
13605;SDS011;6874;52.084;5.090;2023-07-13T02:28:25;88.77;;;85.87;;
13605;SDS011;6874;52.084;5.090;2023-07-13T02:30:51;76.77;;;74.27;;
13605;SDS011;6874;52.084;5.090;2023-07-13T02:33:17;136.27;;;131.77;;
13605;SDS011;6874;52.084;5.090;2023-07-13T02:35:42;155.60;;;150.37;;
13605;SDS011;6874;52.084;5.090;2023-07-13T02:38:08;148.60;;;143.60;;
13605;SDS011;6874;52.084;5.090;2023-07-13T02:40:34;152.07;;;146.97;;
13605;SDS011;6874;52.084;5.090;2023-07-13T02:43:00;133.73;;;129.23;;
13605;SDS011;6874;52.084;5.090;2023-07-13T02:45:27;123.03;;;118.93;;
13605;SDS011;6874;52.084;5.090;2023-07-13T02:47:53;122.03;;;117.97;;
13605;SDS011;6874;52.084;5.090;2023-07-13T02:50:19;123.07;;;118.97;;
13605;SDS011;6874;52.084;5.090;2023-07-13T02:52:44;118.97;;;114.97;;
13605;SDS011;6874;52.084;5.090;2023-07-13T02:55:10;126.83;;;122.53;;
13605;SDS011;6874;52.084;5.090;2023-07-13T02:57:36;126.07;;;121.77;;
13605;SDS011;6874;52.084;5.090;2023-07-13T03:00:02;126.90;;;122.60;;
13605;SDS011;6874;52.084;5.090;2023-07-13T03:02:32;127.03;;;122.73;;
13605;SDS011;6874;52.084;5.090;2023-07-13T03:04:59;127.37;;;123.03;;
13605;SDS011;6874;52.084;5.090;2023-07-13T03:07:24;130.93;;;126.47;;
13605;SDS011;6874;52.084;5.090;2023-07-13T03:09:56;131.27;;;126.80;;
13605;SDS011;6874;52.084;5.090;2023-07-13T03:12:22;126.63;;;122.33;;
13605;SDS011;6874;52.084;5.090;2023-07-13T03:14:49;124.87;;;120.60;;
13605;SDS011;6874;52.084;5.090;2023-07-13T03:17:14;121.50;;;117.30;;
13605;SDS011;6874;52.084;5.090;2023-07-13T03:19:40;124.83;;;120.53;;
13605;SDS011;6874;52.084;5.090;2023-07-13T03:22:06;121.53;;;117.40;;
13605;SDS011;6874;52.084;5.090;2023-07-13T03:24:33;126.60;;;122.30;;
13605;SDS011;6874;52.084;5.090;2023-07-13T03:27:00;122.40;;;118.17;;
13605;SDS011;6874;52.084;5.090;2023-07-13T03:29:27;130.83;;;126.37;;
13605;SDS011;6874;52.084;5.090;2023-07-13T03:31:52;140.87;;;136.03;;
13605;SDS011;6874;52.084;5.090;2023-07-13T03:34:18;123.37;;;119.07;;
13605;SDS011;6874;52.084;5.090;2023-07-13T03:36:44;137.87;;;133.10;;
13605;SDS011;6874;52.084;5.090;2023-07-13T03:39:09;136.33;;;131.53;;
13605;SDS011;6874;52.084;5.090;2023-07-13T03:41:35;138.47;;;133.57;;
13605;SDS011;6874;52.084;5.090;2023-07-13T03:44:01;135.33;;;130.57;;
13605;SDS011;6874;52.084;5.090;2023-07-13T03:46:27;146.40;;;141.30;;
13605;SDS011;6874;52.084;5.090;2023-07-13T03:48:53;138.57;;;133.70;;
13605;SDS011;6874;52.084;5.090;2023-07-13T03:51:19;128.53;;;123.93;;
13605;SDS011;6874;52.084;5.090;2023-07-13T03:53:45;126.20;;;121.70;;
13605;SDS011;6874;52.084;5.090;2023-07-13T03:56:12;140.57;;;135.53;;
13605;SDS011;6874;52.084;5.090;2023-07-13T03:58:40;131.93;;;127.17;;
13605;SDS011;6874;52.084;5.090;2023-07-13T04:01:08;133.90;;;129.07;;
13605;SDS011;6874;52.084;5.090;2023-07-13T04:03:35;132.03;;;127.23;;
13605;SDS011;6874;52.084;5.090;2023-07-13T04:06:02;146.83;;;141.47;;
13605;SDS011;6874;52.084;5.090;2023-07-13T04:08:30;155.10;;;149.50;;
13605;SDS011;6874;52.084;5.090;2023-07-13T04:10:58;148.73;;;143.40;;
13605;SDS011;6874;52.084;5.090;2023-07-13T04:13:25;163.80;;;157.90;;
13605;SDS011;6874;52.084;5.090;2023-07-13T04:15:52;167.73;;;161.73;;
13605;SDS011;6874;52.084;5.090;2023-07-13T04:18:18;187.17;;;180.60;;
13605;SDS011;6874;52.084;5.090;2023-07-13T04:20:45;204.03;;;196.87;;
13605;SDS011;6874;52.084;5.090;2023-07-13T04:23:11;220.20;;;212.37;;
13605;SDS011;6874;52.084;5.090;2023-07-13T04:25:37;222.27;;;214.33;;
13605;SDS011;6874;52.084;5.090;2023-07-13T04:28:03;243.10;;;234.53;;
13605;SDS011;6874;52.084;5.090;2023-07-13T04:30:29;255.50;;;246.37;;
13605;SDS011;6874;52.084;5.090;2023-07-13T04:32:55;266.07;;;256.47;;
13605;SDS011;6874;52.084;5.090;2023-07-13T04:35:21;284.17;;;273.27;;
13605;SDS011;6874;52.084;5.090;2023-07-13T04:37:48;300.47;;;288.73;;
13605;SDS011;6874;52.084;5.090;2023-07-13T04:40:15;321.30;;;308.80;;
13605;SDS011;6874;52.084;5.090;2023-07-13T04:42:42;331.40;;;318.23;;
13605;SDS011;6874;52.084;5.090;2023-07-13T04:45:08;341.90;;;328.43;;
13605;SDS011;6874;52.084;5.090;2023-07-13T04:47:34;358.53;;;344.13;;
13605;SDS011;6874;52.084;5.090;2023-07-13T04:50:00;356.17;;;342.03;;
13605;SDS011;6874;52.084;5.090;2023-07-13T04:52:26;388.10;;;372.50;;
13605;SDS011;6874;52.084;5.090;2023-07-13T04:54:52;408.27;;;391.67;;
13605;SDS011;6874;52.084;5.090;2023-07-13T04:57:17;425.53;;;408.10;;
13605;SDS011;6874;52.084;5.090;2023-07-13T04:59:43;443.67;;;425.23;;
13605;SDS011;6874;52.084;5.090;2023-07-13T05:02:09;451.67;;;432.70;;
13605;SDS011;6874;52.084;5.090;2023-07-13T05:04:35;470.33;;;450.30;;
13605;SDS011;6874;52.084;5.090;2023-07-13T05:07:01;477.03;;;456.53;;
13605;SDS011;6874;52.084;5.090;2023-07-13T05:09:26;470.50;;;450.37;;
13605;SDS011;6874;52.084;5.090;2023-07-13T05:11:52;478.73;;;457.87;;
13605;SDS011;6874;52.084;5.090;2023-07-13T05:14:17;470.10;;;449.43;;
13605;SDS011;6874;52.084;5.090;2023-07-13T05:16:43;472.87;;;452.20;;
13605;SDS011;6874;52.084;5.090;2023-07-13T05:19:09;472.10;;;451.27;;
13605;SDS011;6874;52.084;5.090;2023-07-13T05:21:35;474.80;;;453.90;;
13605;SDS011;6874;52.084;5.090;2023-07-13T05:24:00;470.13;;;449.30;;
13605;SDS011;6874;52.084;5.090;2023-07-13T05:26:26;475.57;;;454.53;;
13605;SDS011;6874;52.084;5.090;2023-07-13T05:28:52;462.70;;;441.97;;
13605;SDS011;6874;52.084;5.090;2023-07-13T05:31:17;455.50;;;434.70;;
13605;SDS011;6874;52.084;5.090;2023-07-13T05:33:46;455.93;;;434.93;;
13605;SDS011;6874;52.084;5.090;2023-07-13T05:36:12;456.90;;;435.80;;
13605;SDS011;6874;52.084;5.090;2023-07-13T05:38:37;461.07;;;439.67;;
13605;SDS011;6874;52.084;5.090;2023-07-13T05:41:03;471.90;;;449.60;;
13605;SDS011;6874;52.084;5.090;2023-07-13T05:43:29;479.33;;;456.60;;
13605;SDS011;6874;52.084;5.090;2023-07-13T05:45:55;470.67;;;448.03;;
13605;SDS011;6874;52.084;5.090;2023-07-13T05:48:21;435.90;;;416.23;;
13605;SDS011;6874;52.084;5.090;2023-07-13T05:50:47;445.13;;;425.17;;
13605;SDS011;6874;52.084;5.090;2023-07-13T05:53:13;440.97;;;421.13;;
13605;SDS011;6874;52.084;5.090;2023-07-13T05:55:42;439.43;;;419.83;;
13605;SDS011;6874;52.084;5.090;2023-07-13T05:58:09;450.60;;;430.33;;
13605;SDS011;6874;52.084;5.090;2023-07-13T06:00:36;463.73;;;442.90;;
13605;SDS011;6874;52.084;5.090;2023-07-13T06:03:01;463.03;;;442.03;;
13605;SDS011;6874;52.084;5.090;2023-07-13T06:05:27;472.53;;;451.03;;
13605;SDS011;6874;52.084;5.090;2023-07-13T06:07:53;466.97;;;445.97;;
13605;SDS011;6874;52.084;5.090;2023-07-13T06:10:19;442.17;;;422.63;;
13605;SDS011;6874;52.084;5.090;2023-07-13T06:12:45;427.10;;;408.03;;
13605;SDS011;6874;52.084;5.090;2023-07-13T06:15:11;395.83;;;378.30;;
13605;SDS011;6874;52.084;5.090;2023-07-13T06:17:37;370.67;;;354.60;;
13605;SDS011;6874;52.084;5.090;2023-07-13T06:20:03;319.43;;;306.27;;
13605;SDS011;6874;52.084;5.090;2023-07-13T06:22:29;306.53;;;293.97;;
13605;SDS011;6874;52.084;5.090;2023-07-13T06:24:54;224.43;;;216.20;;
13605;SDS011;6874;52.084;5.090;2023-07-13T06:27:20;195.80;;;189.03;;
13605;SDS011;6874;52.084;5.090;2023-07-13T06:29:46;193.40;;;186.73;;
13605;SDS011;6874;52.084;5.090;2023-07-13T06:32:11;164.90;;;159.27;;
13605;SDS011;6874;52.084;5.090;2023-07-13T06:34:37;180.57;;;174.23;;
13605;SDS011;6874;52.084;5.090;2023-07-13T06:37:03;121.07;;;116.80;;
13605;SDS011;6874;52.084;5.090;2023-07-13T06:39:28;114.90;;;110.87;;
13605;SDS011;6874;52.084;5.090;2023-07-13T06:41:54;110.10;;;106.07;;
13605;SDS011;6874;52.084;5.090;2023-07-13T06:44:20;104.87;;;101.07;;
13605;SDS011;6874;52.084;5.090;2023-07-13T06:46:45;86.67;;;83.43;;
13605;SDS011;6874;52.084;5.090;2023-07-13T06:49:11;95.70;;;92.10;;
13605;SDS011;6874;52.084;5.090;2023-07-13T06:51:36;107.33;;;103.20;;
13605;SDS011;6874;52.084;5.090;2023-07-13T06:54:02;124.57;;;119.83;;
13605;SDS011;6874;52.084;5.090;2023-07-13T06:56:28;109.50;;;105.23;;
13605;SDS011;6874;52.084;5.090;2023-07-13T06:58:54;111.53;;;107.53;;
13605;SDS011;6874;52.084;5.090;2023-07-13T07:01:20;136.13;;;131.20;;
13605;SDS011;6874;52.084;5.090;2023-07-13T07:03:45;131.90;;;127.20;;
13605;SDS011;6874;52.084;5.090;2023-07-13T07:08:41;187.37;;;180.60;;
13605;SDS011;6874;52.084;5.090;2023-07-13T07:11:11;197.97;;;190.53;;
13605;SDS011;6874;52.084;5.090;2023-07-13T07:13:39;189.77;;;182.63;;
13605;SDS011;6874;52.084;5.090;2023-07-13T07:16:05;189.13;;;181.87;;
13605;SDS011;6874;52.084;5.090;2023-07-13T07:18:30;186.83;;;179.77;;
13605;SDS011;6874;52.084;5.090;2023-07-13T07:20:56;185.40;;;178.70;;
13605;SDS011;6874;52.084;5.090;2023-07-13T07:23:23;171.67;;;165.50;;
13605;SDS011;6874;52.084;5.090;2023-07-13T07:25:49;178.27;;;171.67;;
13605;SDS011;6874;52.084;5.090;2023-07-13T07:28:15;188.47;;;181.23;;
13605;SDS011;6874;52.084;5.090;2023-07-13T07:30:44;192.80;;;185.63;;
13605;SDS011;6874;52.084;5.090;2023-07-13T07:33:11;191.23;;;183.93;;
13605;SDS011;6874;52.084;5.090;2023-07-13T07:35:36;185.63;;;178.93;;
13605;SDS011;6874;52.084;5.090;2023-07-13T07:38:02;153.53;;;148.07;;
13605;SDS011;6874;52.084;5.090;2023-07-13T07:40:28;143.60;;;138.40;;
13605;SDS011;6874;52.084;5.090;2023-07-13T07:42:54;136.43;;;131.40;;
13605;SDS011;6874;52.084;5.090;2023-07-13T07:45:20;163.00;;;157.23;;
13605;SDS011;6874;52.084;5.090;2023-07-13T07:47:46;201.97;;;195.23;;
13605;SDS011;6874;52.084;5.090;2023-07-13T07:50:12;232.40;;;224.40;;
13605;SDS011;6874;52.084;5.090;2023-07-13T07:52:38;228.00;;;220.13;;
13605;SDS011;6874;52.084;5.090;2023-07-13T07:55:04;234.93;;;226.73;;
13605;SDS011;6874;52.084;5.090;2023-07-13T07:57:31;243.93;;;235.03;;
13605;SDS011;6874;52.084;5.090;2023-07-13T07:59:57;248.97;;;239.53;;
13605;SDS011;6874;52.084;5.090;2023-07-13T08:02:24;245.63;;;236.13;;
13605;SDS011;6874;52.084;5.090;2023-07-13T08:04:50;250.07;;;240.20;;
13605;SDS011;6874;52.084;5.090;2023-07-13T08:07:16;234.93;;;225.57;;
13605;SDS011;6874;52.084;5.090;2023-07-13T08:09:42;243.23;;;233.43;;
13605;SDS011;6874;52.084;5.090;2023-07-13T08:12:07;238.73;;;229.07;;
13605;SDS011;6874;52.084;5.090;2023-07-13T08:14:33;240.50;;;231.07;;
13605;SDS011;6874;52.084;5.090;2023-07-13T08:16:59;252.80;;;243.10;;
13605;SDS011;6874;52.084;5.090;2023-07-13T08:19:24;267.70;;;257.87;;
13605;SDS011;6874;52.084;5.090;2023-07-13T08:21:50;302.80;;;291.97;;
13605;SDS011;6874;52.084;5.090;2023-07-13T08:24:16;272.40;;;263.03;;
13605;SDS011;6874;52.084;5.090;2023-07-13T08:26:43;306.13;;;295.67;;
13605;SDS011;6874;52.084;5.090;2023-07-13T08:29:10;205.60;;;198.73;;
13605;SDS011;6874;52.084;5.090;2023-07-13T08:31:36;211.47;;;204.17;;
13605;SDS011;6874;52.084;5.090;2023-07-13T08:34:01;235.50;;;227.57;;
13605;SDS011;6874;52.084;5.090;2023-07-13T08:36:27;285.93;;;275.70;;
13605;SDS011;6874;52.084;5.090;2023-07-13T08:38:53;281.17;;;270.50;;
13605;SDS011;6874;52.084;5.090;2023-07-13T08:41:20;303.00;;;290.70;;
13605;SDS011;6874;52.084;5.090;2023-07-13T08:43:47;305.97;;;293.03;;
13605;SDS011;6874;52.084;5.090;2023-07-13T08:48:55;248.23;;;237.97;;
13605;SDS011;6874;52.084;5.090;2023-07-13T08:54:15;216.17;;;207.83;;
13605;SDS011;6874;52.084;5.090;2023-07-13T08:57:15;167.83;;;161.40;;
13605;SDS011;6874;52.084;5.090;2023-07-13T08:59:44;182.30;;;175.67;;
13605;SDS011;6874;52.084;5.090;2023-07-13T09:02:25;251.70;;;242.40;;
13605;SDS011;6874;52.084;5.090;2023-07-13T09:07:37;255.17;;;243.10;;
13605;SDS011;6874;52.084;5.090;2023-07-13T09:17:56;245.43;;;235.63;;
13605;SDS011;6874;52.084;5.090;2023-07-13T09:20:37;273.93;;;263.33;;
13605;SDS011;6874;52.084;5.090;2023-07-13T09:23:09;333.23;;;320.57;;
13605;SDS011;6874;52.084;5.090;2023-07-13T09:25:40;415.43;;;398.37;;
13605;SDS011;6874;52.084;5.090;2023-07-13T09:30:45;541.50;;;514.87;;
13605;SDS011;6874;52.084;5.090;2023-07-13T09:33:23;483.97;;;462.47;;
13605;SDS011;6874;52.084;5.090;2023-07-13T09:35:49;353.10;;;340.27;;
13605;SDS011;6874;52.084;5.090;2023-07-13T09:38:16;264.90;;;255.73;;
13605;SDS011;6874;52.084;5.090;2023-07-13T09:43:13;149.17;;;143.97;;
13605;SDS011;6874;52.084;5.090;2023-07-13T09:45:41;149.17;;;143.97;;
13605;SDS011;6874;52.084;5.090;2023-07-13T09:48:11;180.77;;;174.43;;
13605;SDS011;6874;52.084;5.090;2023-07-13T09:50:38;204.90;;;197.70;;
13605;SDS011;6874;52.084;5.090;2023-07-13T09:53:09;231.20;;;223.20;;
13605;SDS011;6874;52.084;5.090;2023-07-13T09:55:38;257.33;;;248.37;;
13605;SDS011;6874;52.084;5.090;2023-07-13T09:58:12;283.40;;;273.30;;
13605;SDS011;6874;52.084;5.090;2023-07-13T10:00:53;321.33;;;309.80;;
13605;SDS011;6874;52.084;5.090;2023-07-13T10:03:25;376.77;;;361.60;;
13605;SDS011;6874;52.084;5.090;2023-07-13T10:05:52;408.87;;;391.23;;
13605;SDS011;6874;52.084;5.090;2023-07-13T10:08:26;428.80;;;410.67;;
13605;SDS011;6874;52.084;5.090;2023-07-13T10:11:29;504.60;;;481.27;;
13605;SDS011;6874;52.084;5.090;2023-07-13T10:16:25;606.10;;;575.17;;
13605;SDS011;6874;52.084;5.090;2023-07-13T10:18:58;563.67;;;537.30;;
13605;SDS011;6874;52.084;5.090;2023-07-13T10:21:38;433.43;;;415.73;;
13605;SDS011;6874;52.084;5.090;2023-07-13T10:24:17;298.70;;;287.93;;
13605;SDS011;6874;52.084;5.090;2023-07-13T10:26:46;275.17;;;265.60;;
13605;SDS011;6874;52.084;5.090;2023-07-13T10:29:35;272.07;;;262.63;;
13605;SDS011;6874;52.084;5.090;2023-07-13T10:32:07;297.50;;;287.00;;
13605;SDS011;6874;52.084;5.090;2023-07-13T10:34:35;269.17;;;259.67;;
13605;SDS011;6874;52.084;5.090;2023-07-13T10:37:01;245.43;;;236.70;;
13605;SDS011;6874;52.084;5.090;2023-07-13T10:39:28;214.53;;;207.00;;
13605;SDS011;6874;52.084;5.090;2023-07-13T10:41:57;191.03;;;184.30;;
13605;SDS011;6874;52.084;5.090;2023-07-13T10:44:32;193.87;;;186.93;;
13605;SDS011;6874;52.084;5.090;2023-07-13T10:46:58;212.37;;;204.77;;
13605;SDS011;6874;52.084;5.090;2023-07-13T10:49:32;232.73;;;224.27;;
13605;SDS011;6874;52.084;5.090;2023-07-13T10:52:00;222.50;;;214.57;;
13605;SDS011;6874;52.084;5.090;2023-07-13T10:59:49;126.50;;;122.13;;
13605;SDS011;6874;52.084;5.090;2023-07-13T11:02:40;167.60;;;161.93;;
13605;SDS011;6874;52.084;5.090;2023-07-13T11:07:54;285.70;;;275.23;;
13605;SDS011;6874;52.084;5.090;2023-07-13T11:13:57;311.17;;;300.03;;
13605;SDS011;6874;52.084;5.090;2023-07-13T11:19:07;201.90;;;194.87;;
13605;SDS011;6874;52.084;5.090;2023-07-13T11:24:47;232.23;;;224.40;;
13605;SDS011;6874;52.084;5.090;2023-07-13T11:27:50;276.67;;;266.77;;
13605;SDS011;6874;52.084;5.090;2023-07-13T11:35:46;250.53;;;241.47;;
13605;SDS011;6874;52.084;5.090;2023-07-13T11:38:32;254.43;;;244.93;;
13605;SDS011;6874;52.084;5.090;2023-07-13T11:44:01;241.63;;;232.87;;
13605;SDS011;6874;52.084;5.090;2023-07-13T11:46:50;235.83;;;227.53;;
13605;SDS011;6874;52.084;5.090;2023-07-13T11:49:18;224.73;;;217.20;;
13605;SDS011;6874;52.084;5.090;2023-07-13T11:51:45;229.17;;;221.40;;
13605;SDS011;6874;52.084;5.090;2023-07-13T11:56:55;226.83;;;219.10;;
13605;SDS011;6874;52.084;5.090;2023-07-13T11:59:42;218.07;;;210.73;;
13605;SDS011;6874;52.084;5.090;2023-07-13T12:02:13;223.37;;;215.67;;
13605;SDS011;6874;52.084;5.090;2023-07-13T12:04:43;247.07;;;238.27;;
13605;SDS011;6874;52.084;5.090;2023-07-13T12:07:17;246.23;;;237.53;;
13605;SDS011;6874;52.084;5.090;2023-07-13T12:09:44;222.07;;;214.23;;
13605;SDS011;6874;52.084;5.090;2023-07-13T12:12:11;183.00;;;176.30;;
13605;SDS011;6874;52.084;5.090;2023-07-13T12:14:38;167.37;;;161.27;;
13605;SDS011;6874;52.084;5.090;2023-07-13T12:17:16;148.90;;;143.37;;
13605;SDS011;6874;52.084;5.090;2023-07-13T12:19:45;142.50;;;137.27;;
13605;SDS011;6874;52.084;5.090;2023-07-13T12:22:16;152.23;;;146.70;;
13605;SDS011;6874;52.084;5.090;2023-07-13T12:24:44;198.17;;;190.70;;
13605;SDS011;6874;52.084;5.090;2023-07-13T12:27:25;272.70;;;261.97;;
13605;SDS011;6874;52.084;5.090;2023-07-13T12:30:00;302.60;;;290.20;;
13605;SDS011;6874;52.084;5.090;2023-07-13T12:32:27;381.00;;;363.60;;
13605;SDS011;6874;52.084;5.090;2023-07-13T12:35:01;449.70;;;427.40;;
13605;SDS011;6874;52.084;5.090;2023-07-13T12:37:43;437.63;;;416.93;;
13605;SDS011;6874;52.084;5.090;2023-07-13T12:40:17;439.83;;;418.17;;
13605;SDS011;6874;52.084;5.090;2023-07-13T12:42:48;459.03;;;436.13;;
13605;SDS011;6874;52.084;5.090;2023-07-13T12:45:20;483.30;;;458.60;;
13605;SDS011;6874;52.084;5.090;2023-07-13T12:47:48;468.83;;;446.00;;
13605;SDS011;6874;52.084;5.090;2023-07-13T12:50:22;415.80;;;396.73;;
13605;SDS011;6874;52.084;5.090;2023-07-13T12:52:52;406.60;;;388.40;;
13605;SDS011;6874;52.084;5.090;2023-07-13T12:55:20;424.90;;;405.40;;
13605;SDS011;6874;52.084;5.090;2023-07-13T12:57:49;438.80;;;418.20;;
13605;SDS011;6874;52.084;5.090;2023-07-13T13:00:28;428.00;;;408.40;;
13605;SDS011;6874;52.084;5.090;2023-07-13T13:02:56;440.77;;;421.07;;
13605;SDS011;6874;52.084;5.090;2023-07-13T13:05:25;377.00;;;362.93;;
13605;SDS011;6874;52.084;5.090;2023-07-13T13:07:51;351.00;;;338.40;;
13605;SDS011;6874;52.084;5.090;2023-07-13T13:10:17;323.67;;;312.37;;
13605;SDS011;6874;52.084;5.090;2023-07-13T13:12:43;300.30;;;290.30;;
13605;SDS011;6874;52.084;5.090;2023-07-13T13:15:09;277.93;;;268.83;;
13605;SDS011;6874;52.084;5.090;2023-07-13T13:17:39;309.87;;;299.50;;
13605;SDS011;6874;52.084;5.090;2023-07-13T13:20:23;361.53;;;349.17;;
13605;SDS011;6874;52.084;5.090;2023-07-13T13:22:51;357.40;;;345.17;;
13605;SDS011;6874;52.084;5.090;2023-07-13T13:25:17;346.80;;;334.83;;
13605;SDS011;6874;52.084;5.090;2023-07-13T13:27:44;288.13;;;278.07;;
13605;SDS011;6874;52.084;5.090;2023-07-13T13:30:11;262.57;;;253.50;;
13605;SDS011;6874;52.084;5.090;2023-07-13T13:32:39;166.03;;;160.53;;
13605;SDS011;6874;52.084;5.090;2023-07-13T13:35:07;159.77;;;154.47;;
13605;SDS011;6874;52.084;5.090;2023-07-13T13:37:39;150.87;;;145.67;;
13605;SDS011;6874;52.084;5.090;2023-07-13T13:40:19;148.67;;;143.50;;
13605;SDS011;6874;52.084;5.090;2023-07-13T13:42:48;135.13;;;130.60;;
13605;SDS011;6874;52.084;5.090;2023-07-13T13:45:18;151.63;;;146.50;;
13605;SDS011;6874;52.084;5.090;2023-07-13T13:47:45;170.73;;;165.00;;
13605;SDS011;6874;52.084;5.090;2023-07-13T13:50:13;185.87;;;179.63;;
13605;SDS011;6874;52.084;5.090;2023-07-13T13:52:44;224.03;;;216.60;;
13605;SDS011;6874;52.084;5.090;2023-07-13T13:55:14;251.03;;;242.63;;
13605;SDS011;6874;52.084;5.090;2023-07-13T13:57:42;283.93;;;274.40;;
13605;SDS011;6874;52.084;5.090;2023-07-13T14:00:09;298.10;;;287.93;;
13605;SDS011;6874;52.084;5.090;2023-07-13T14:02:39;298.83;;;288.57;;
13605;SDS011;6874;52.084;5.090;2023-07-13T14:05:11;315.60;;;304.80;;
13605;SDS011;6874;52.084;5.090;2023-07-13T14:07:38;308.93;;;298.33;;
13605;SDS011;6874;52.084;5.090;2023-07-13T14:10:08;323.83;;;312.67;;
13605;SDS011;6874;52.084;5.090;2023-07-13T14:12:40;309.87;;;299.27;;
13605;SDS011;6874;52.084;5.090;2023-07-13T14:15:19;317.70;;;306.83;;
13605;SDS011;6874;52.084;5.090;2023-07-13T14:17:47;322.53;;;310.80;;
13605;SDS011;6874;52.084;5.090;2023-07-13T14:20:17;333.90;;;321.70;;
13605;SDS011;6874;52.084;5.090;2023-07-13T14:22:45;334.17;;;321.90;;
13605;SDS011;6874;52.084;5.090;2023-07-13T14:25:11;333.87;;;321.57;;
13605;SDS011;6874;52.084;5.090;2023-07-13T14:27:38;329.00;;;317.00;;
13605;SDS011;6874;52.084;5.090;2023-07-13T14:30:30;326.27;;;314.53;;
13605;SDS011;6874;52.084;5.090;2023-07-13T14:32:54;288.20;;;277.87;;
13605;SDS011;6874;52.084;5.090;2023-07-13T14:35:21;283.53;;;273.30;;
13605;SDS011;6874;52.084;5.090;2023-07-13T14:37:48;267.70;;;257.87;;
13605;SDS011;6874;52.084;5.090;2023-07-13T14:40:19;253.37;;;244.07;;
13605;SDS011;6874;52.084;5.090;2023-07-13T14:42:51;216.50;;;208.50;;
13605;SDS011;6874;52.084;5.090;2023-07-13T14:45:17;230.00;;;221.40;;
13605;SDS011;6874;52.084;5.090;2023-07-13T14:47:44;254.67;;;245.30;;
13605;SDS011;6874;52.084;5.090;2023-07-13T14:50:14;266.97;;;257.20;;
13605;SDS011;6874;52.084;5.090;2023-07-13T14:52:42;267.27;;;257.47;;
13605;SDS011;6874;52.084;5.090;2023-07-13T14:55:12;282.00;;;271.60;;
13605;SDS011;6874;52.084;5.090;2023-07-13T14:57:39;267.17;;;257.40;;
13605;SDS011;6874;52.084;5.090;2023-07-13T15:00:15;256.83;;;247.33;;
13605;SDS011;6874;52.084;5.090;2023-07-13T15:02:43;244.13;;;235.13;;
13605;SDS011;6874;52.084;5.090;2023-07-13T15:05:13;241.73;;;232.80;;
13605;SDS011;6874;52.084;5.090;2023-07-13T15:07:41;252.53;;;243.27;;
13605;SDS011;6874;52.084;5.090;2023-07-13T15:10:29;275.57;;;265.57;;